Time;durP1;ratioP1;P1;durP2;ratioP2;P2;SDS_P1;SDS_P2;PMS_P1;PMS_P2;Temp;Humidity;BMP_temperature;BMP_pressure;BME280_temperature;BME280_humidity;BME280_pressure;Samples;Min_cycle;Max_cycle;Signal;HPM_P1;HPM_P2
2022/04/14 00:00:15;;;;;;;23.73;11.85;;;11.20;99.90;;;;;;5021888;28;20095;-73
2022/04/14 00:02:41;;;;;;;19.25;11.10;;;11.10;99.90;;;;;;5023936;28;20044;-73
2022/04/14 00:05:07;;;;;;;23.63;11.90;;;11.10;99.90;;;;;;5024677;28;20041;-73
2022/04/14 00:07:33;;;;;;;14.90;10.85;;;11.10;99.90;;;;;;5024251;28;20124;-73
2022/04/14 00:09:58;;;;;;;20.25;10.95;;;11.10;99.90;;;;;;5024742;28;20159;-73
2022/04/14 00:12:24;;;;;;;18.98;11.50;;;11.00;99.90;;;;;;5024701;28;20084;-73
2022/04/14 00:14:50;;;;;;;21.42;11.93;;;11.00;99.90;;;;;;5025653;28;20604;-73
2022/04/14 00:17:16;;;;;;;22.17;12.95;;;11.00;99.90;;;;;;5026028;28;20148;-73
2022/04/14 00:19:42;;;;;;;19.17;12.35;;;11.00;99.90;;;;;;5024146;28;20041;-73
2022/04/14 00:22:08;;;;;;;16.42;12.15;;;10.90;99.90;;;;;;5023249;28;20052;-73
2022/04/14 00:24:33;;;;;;;21.17;13.25;;;10.90;99.90;;;;;;5025633;28;20044;-73
2022/04/14 00:26:59;;;;;;;20.70;13.55;;;10.90;99.90;;;;;;5024417;28;20042;-73
2022/04/14 00:29:25;;;;;;;24.80;14.38;;;10.90;99.90;;;;;;5022595;28;20811;-73
2022/04/14 00:31:51;;;;;;;20.40;12.95;;;10.90;99.90;;;;;;5025321;28;20025;-73
2022/04/14 00:34:16;;;;;;;22.65;13.82;;;10.90;99.90;;;;;;5025043;28;20033;-73
2022/04/14 00:36:42;;;;;;;18.48;12.40;;;10.80;99.90;;;;;;5024573;28;20038;-73
2022/04/14 00:39:09;;;;;;;24.33;13.75;;;10.70;99.90;;;;;;5001643;28;20041;-72
2022/04/14 00:41:37;;;;;;;21.08;13.30;;;10.70;99.90;;;;;;5021062;28;20045;-73
2022/04/14 00:44:04;;;;;;;21.52;12.40;;;10.70;99.90;;;;;;5024520;28;20147;-73
2022/04/14 00:46:30;;;;;;;22.13;12.32;;;10.70;99.90;;;;;;5030318;28;20041;-73
2022/04/14 00:48:56;;;;;;;21.73;12.68;;;10.60;99.90;;;;;;5023141;28;20037;-73
2022/04/14 00:51:22;;;;;;;16.75;12.00;;;10.70;99.90;;;;;;5030392;28;21613;-73
2022/04/14 00:53:48;;;;;;;18.08;12.57;;;10.60;99.90;;;;;;5025423;28;20041;-72
2022/04/14 00:56:14;;;;;;;20.92;11.52;;;10.60;99.90;;;;;;5026094;28;20052;-72
2022/04/14 00:58:43;;;;;;;20.30;11.90;;;10.60;99.90;;;;;;5028975;28;20692;-73
2022/04/14 01:01:09;;;;;;;20.35;12.55;;;10.60;99.90;;;;;;5028703;28;20041;-73
2022/04/14 01:03:35;;;;;;;23.80;13.25;;;10.60;99.90;;;;;;5028259;28;20040;-73
2022/04/14 01:06:03;;;;;;;23.08;13.38;;;10.70;99.90;;;;;;5059351;28;20423;-73
2022/04/14 01:08:32;;;;;;;18.08;13.10;;;10.60;99.90;;;;;;5028806;28;20477;-73
2022/04/14 01:10:58;;;;;;;19.63;13.23;;;10.70;99.90;;;;;;5027107;28;20045;-73
2022/04/14 01:13:25;;;;;;;22.98;13.82;;;10.60;99.90;;;;;;5029559;28;20502;-73
2022/04/14 01:15:59;;;;;;;20.95;13.30;;;10.60;99.90;;;;;;5026777;28;20486;-73
2022/04/14 01:18:25;;;;;;;21.58;13.82;;;10.70;99.90;;;;;;5026094;28;20041;-73
2022/04/14 01:20:52;;;;;;;23.63;15.23;;;10.60;99.90;;;;;;5027803;28;20119;-73
2022/04/14 01:23:23;;;;;;;26.60;14.25;;;10.60;99.90;;;;;;5025543;28;20353;-72
2022/04/14 01:25:50;;;;;;;24.25;14.68;;;10.60;99.90;;;;;;5008136;28;20049;-73
2022/04/14 01:28:16;;;;;;;23.55;14.57;;;10.60;99.90;;;;;;5012072;28;20069;-73
2022/04/14 01:30:41;;;;;;;22.25;14.32;;;10.50;99.90;;;;;;5031230;28;20069;-73
2022/04/14 01:33:07;;;;;;;20.80;14.75;;;10.50;99.90;;;;;;5027050;28;20157;-72
2022/04/14 01:35:33;;;;;;;25.25;15.40;;;10.50;99.90;;;;;;5023314;28;20387;-73
2022/04/14 01:37:59;;;;;;;25.15;16.45;;;10.50;99.90;;;;;;5025993;28;20128;-72
2022/04/14 01:40:24;;;;;;;22.63;13.90;;;10.40;99.90;;;;;;5025186;28;20103;-72
2022/04/14 01:42:50;;;;;;;22.77;15.20;;;10.40;99.90;;;;;;5025951;28;20045;-73
2022/04/14 01:45:16;;;;;;;25.38;15.63;;;10.40;99.90;;;;;;5024252;28;20045;-72
2022/04/14 01:47:43;;;;;;;20.40;14.15;;;10.30;99.90;;;;;;5027088;28;20323;-73
2022/04/14 01:50:12;;;;;;;22.55;16.00;;;10.30;99.90;;;;;;5027292;28;20033;-72
2022/04/14 01:52:39;;;;;;;27.67;17.02;;;10.30;99.90;;;;;;5035914;28;20041;-73
2022/04/14 01:55:06;;;;;;;25.23;16.48;;;10.20;99.90;;;;;;5025403;28;20037;-73
2022/04/14 01:57:32;;;;;;;25.15;17.08;;;10.20;99.90;;;;;;5027052;28;20038;-73
2022/04/14 01:59:59;;;;;;;28.17;16.67;;;10.20;99.90;;;;;;5027814;28;20514;-73
2022/04/14 02:02:25;;;;;;;26.58;17.35;;;10.10;99.90;;;;;;5026826;28;20091;-73
2022/04/14 02:04:51;;;;;;;28.40;17.10;;;10.10;99.90;;;;;;5023910;28;20072;-73
2022/04/14 02:07:20;;;;;;;31.27;18.55;;;10.10;99.90;;;;;;5021779;28;20136;-73
2022/04/14 02:09:46;;;;;;;30.45;19.58;;;10.00;99.90;;;;;;5024413;28;20038;-73
2022/04/14 02:12:12;;;;;;;28.33;17.58;;;10.00;99.90;;;;;;5025794;28;20036;-72
2022/04/14 02:14:39;;;;;;;33.28;20.38;;;10.00;99.90;;;;;;5027307;28;20041;-73
2022/04/14 02:17:05;;;;;;;32.60;19.98;;;10.00;99.90;;;;;;5025132;28;20466;-72
2022/04/14 02:19:31;;;;;;;32.05;20.00;;;10.10;99.90;;;;;;5007437;28;20128;-73
2022/04/14 02:22:00;;;;;;;37.40;21.58;;;10.10;99.90;;;;;;5026906;28;20129;-73
2022/04/14 02:24:26;;;;;;;28.73;19.83;;;10.10;99.90;;;;;;5026996;28;20037;-72
2022/04/14 02:26:53;;;;;;;31.27;19.60;;;10.00;99.90;;;;;;5026590;28;20041;-73
2022/04/14 02:29:19;;;;;;;32.75;20.65;;;10.00;99.90;;;;;;5027147;28;20468;-73
2022/04/14 02:31:45;;;;;;;35.53;20.63;;;10.10;99.90;;;;;;5028640;28;20033;-72
2022/04/14 02:34:11;;;;;;;34.72;21.33;;;10.00;99.90;;;;;;5031689;28;20112;-72
2022/04/14 02:36:37;;;;;;;34.67;21.08;;;10.00;99.90;;;;;;5022924;28;20041;-73
2022/04/14 02:39:03;;;;;;;32.35;21.13;;;10.00;99.90;;;;;;5030855;28;20038;-72
2022/04/14 02:41:28;;;;;;;33.33;19.95;;;10.00;99.90;;;;;;5030912;28;20124;-72
2022/04/14 02:43:54;;;;;;;34.78;21.83;;;9.90;99.90;;;;;;5041378;28;20124;-72
2022/04/14 02:46:20;;;;;;;36.88;22.05;;;9.90;99.90;;;;;;5028247;28;20041;-73
2022/04/14 02:48:46;;;;;;;40.00;22.40;;;10.00;99.90;;;;;;5024240;28;20144;-72
2022/04/14 02:51:11;;;;;;;33.80;21.85;;;9.90;99.90;;;;;;5017126;28;20049;-72
2022/04/14 02:53:37;;;;;;;40.78;23.88;;;9.90;99.90;;;;;;5023635;28;20114;-73
2022/04/14 02:56:05;;;;;;;36.60;22.67;;;9.90;99.90;;;;;;5026473;28;20602;-73
2022/04/14 02:58:31;;;;;;;38.08;24.05;;;9.80;99.90;;;;;;5025228;28;20120;-73
2022/04/14 03:00:57;;;;;;;35.38;23.38;;;9.80;99.90;;;;;;5025172;28;20130;-73
2022/04/14 03:03:28;;;;;;;40.83;23.38;;;9.80;99.90;;;;;;5025512;28;20494;-73
2022/04/14 03:05:53;;;;;;;38.00;24.38;;;9.80;99.90;;;;;;5025795;28;20060;-72
2022/04/14 03:08:19;;;;;;;36.88;24.27;;;9.80;99.90;;;;;;5025523;28;20418;-72
2022/04/14 03:10:45;;;;;;;45.00;24.75;;;9.70;99.90;;;;;;5024390;28;20041;-73
2022/04/14 03:13:11;;;;;;;40.40;24.33;;;9.70;99.90;;;;;;5018668;28;20037;-73
2022/04/14 03:15:36;;;;;;;47.33;25.90;;;9.70;99.90;;;;;;5025816;28;20037;-72
2022/04/14 03:18:03;;;;;;;43.40;26.40;;;9.70;99.90;;;;;;5024999;28;20167;-73
2022/04/14 03:20:29;;;;;;;43.72;23.85;;;9.70;99.90;;;;;;5025486;28;20033;-73
2022/04/14 03:22:58;;;;;;;37.88;25.42;;;9.70;99.90;;;;;;5018584;28;20508;-73
2022/04/14 03:25:24;;;;;;;37.22;25.20;;;9.70;99.90;;;;;;5025646;28;20041;-73
2022/04/14 03:27:50;;;;;;;39.03;25.70;;;9.70;99.90;;;;;;5025070;28;21386;-73
2022/04/14 03:30:16;;;;;;;44.08;28.23;;;9.60;99.90;;;;;;5024718;28;20068;-73
2022/04/14 03:32:43;;;;;;;45.50;28.05;;;9.60;99.90;;;;;;5025426;28;20423;-73
2022/04/14 03:35:10;;;;;;;46.42;27.67;;;9.60;99.90;;;;;;5024554;28;20465;-73
2022/04/14 03:37:36;;;;;;;39.00;26.98;;;9.60;99.90;;;;;;5024541;28;21730;-71
2022/04/14 03:40:03;;;;;;;51.55;27.42;;;9.60;99.90;;;;;;5024531;28;20072;-72
2022/04/14 03:42:29;;;;;;;47.38;26.67;;;9.60;99.90;;;;;;5025782;28;20080;-72
2022/04/14 03:44:55;;;;;;;43.85;26.58;;;9.60;99.90;;;;;;5025045;28;20467;-73
2022/04/14 03:47:20;;;;;;;43.47;26.52;;;9.60;99.90;;;;;;5024328;28;20041;-73
2022/04/14 03:49:46;;;;;;;40.55;27.02;;;9.60;99.90;;;;;;5024694;28;20132;-73
2022/04/14 03:52:11;;;;;;;48.50;27.70;;;9.60;99.90;;;;;;5024721;28;20056;-73
2022/04/14 03:54:37;;;;;;;45.38;28.25;;;9.50;99.90;;;;;;5023664;28;20044;-73
2022/04/14 03:57:03;;;;;;;46.97;28.88;;;9.50;99.90;;;;;;5018019;28;20049;-73
2022/04/14 03:59:29;;;;;;;46.58;29.02;;;9.50;99.90;;;;;;5024270;28;20051;-72
2022/04/14 04:01:54;;;;;;;47.50;28.27;;;9.40;99.90;;;;;;5024449;28;20509;-72
2022/04/14 04:04:20;;;;;;;51.80;29.45;;;9.50;99.90;;;;;;5023205;28;20040;-72
2022/04/14 04:06:46;;;;;;;47.60;28.55;;;9.40;99.90;;;;;;5020547;28;20052;-72
2022/04/14 04:09:12;;;;;;;44.72;27.92;;;9.40;99.90;;;;;;5024579;28;20411;-72
2022/04/14 04:11:38;;;;;;;46.72;28.73;;;9.50;99.90;;;;;;5021410;28;20041;-73
2022/04/14 04:14:04;;;;;;;47.15;30.23;;;9.40;99.90;;;;;;5003678;28;20056;-73
2022/04/14 04:16:30;;;;;;;49.92;29.38;;;9.40;99.90;;;;;;5024702;28;20037;-72
2022/04/14 04:18:55;;;;;;;48.42;28.90;;;9.30;99.90;;;;;;5024573;28;20083;-73
2022/04/14 04:21:21;;;;;;;45.45;27.75;;;9.30;99.90;;;;;;5025355;28;20184;-73
2022/04/14 04:23:47;;;;;;;43.20;26.50;;;9.30;99.90;;;;;;5029731;28;20032;-73
2022/04/14 04:26:13;;;;;;;45.70;28.13;;;9.30;99.90;;;;;;5018748;28;20038;-73
2022/04/14 04:28:39;;;;;;;48.33;28.80;;;9.20;99.90;;;;;;5027280;28;20029;-73
2022/04/14 04:31:04;;;;;;;47.63;29.40;;;9.20;99.90;;;;;;5023034;28;20092;-73
2022/04/14 04:33:30;;;;;;;47.22;29.50;;;9.20;99.90;;;;;;5022215;28;20033;-73
2022/04/14 04:35:56;;;;;;;52.60;29.92;;;9.10;99.90;;;;;;5025407;28;20442;-73
2022/04/14 04:38:21;;;;;;;42.78;27.20;;;9.10;99.90;;;;;;5031124;28;20045;-73
2022/04/14 04:40:47;;;;;;;43.28;26.52;;;9.00;99.90;;;;;;5028942;28;20442;-73
2022/04/14 04:43:16;;;;;;;46.33;28.63;;;9.00;99.90;;;;;;5028434;28;20065;-73
2022/04/14 04:45:42;;;;;;;41.30;27.50;;;9.00;99.90;;;;;;5028487;28;20045;-73
2022/04/14 04:48:08;;;;;;;45.78;27.15;;;8.90;99.90;;;;;;5027849;28;20048;-73
2022/04/14 04:50:34;;;;;;;48.55;29.05;;;8.90;99.90;;;;;;5029554;28;20061;-73
2022/04/14 04:52:59;;;;;;;46.15;29.98;;;8.90;99.90;;;;;;5026154;28;20045;-73
2022/04/14 04:55:25;;;;;;;50.95;29.17;;;8.90;99.90;;;;;;5023740;28;20041;-73
2022/04/14 04:57:51;;;;;;;52.17;32.55;;;8.80;99.90;;;;;;5027391;28;20790;-73
2022/04/14 05:00:17;;;;;;;49.35;30.23;;;8.80;99.90;;;;;;5007277;28;20406;-73
2022/04/14 05:02:42;;;;;;;47.63;30.48;;;8.80;99.90;;;;;;5028516;28;20394;-73
2022/04/14 05:05:08;;;;;;;43.30;26.98;;;8.70;99.90;;;;;;5013859;28;20139;-73
2022/04/14 05:07:34;;;;;;;52.80;29.27;;;8.70;99.90;;;;;;5026920;28;20145;-73
2022/04/14 05:10:00;;;;;;;53.25;32.30;;;8.70;99.90;;;;;;5024816;28;20117;-73
2022/04/14 05:12:26;;;;;;;48.83;29.50;;;8.70;99.90;;;;;;5028436;28;20072;-73
2022/04/14 05:14:52;;;;;;;62.97;34.38;;;8.70;99.90;;;;;;5027583;28;20042;-73
2022/04/14 05:17:18;;;;;;;62.78;35.35;;;8.70;99.90;;;;;;5021850;28;20072;-73
2022/04/14 05:19:44;;;;;;;54.17;33.22;;;8.70;99.90;;;;;;5008761;28;20033;-73
2022/04/14 05:22:10;;;;;;;51.78;31.17;;;8.70;99.90;;;;;;5027879;28;20073;-73
2022/04/14 05:24:36;;;;;;;55.75;34.05;;;8.70;99.90;;;;;;5026969;28;20083;-73
2022/04/14 05:27:02;;;;;;;57.63;35.28;;;8.70;99.90;;;;;;5027235;28;20033;-73
2022/04/14 05:29:27;;;;;;;66.50;37.20;;;8.70;99.90;;;;;;5029649;28;20440;-73
2022/04/14 05:31:53;;;;;;;62.88;34.97;;;8.60;99.90;;;;;;5017163;28;20061;-73
2022/04/14 05:34:19;;;;;;;67.32;36.13;;;8.70;99.90;;;;;;5025822;28;20044;-73
2022/04/14 05:36:45;;;;;;;67.72;36.17;;;8.70;99.90;;;;;;5032266;28;20052;-73
2022/04/14 05:39:11;;;;;;;57.50;33.92;;;8.70;99.90;;;;;;5046196;28;20076;-73
2022/04/14 05:41:36;;;;;;;53.90;30.67;;;8.70;99.90;;;;;;5030349;28;20120;-73
2022/04/14 05:44:02;;;;;;;53.92;32.72;;;8.70;99.90;;;;;;5010446;28;20045;-73
2022/04/14 05:46:28;;;;;;;54.72;35.05;;;8.70;99.90;;;;;;5017357;28;20045;-73
2022/04/14 05:48:54;;;;;;;58.17;33.90;;;8.70;99.90;;;;;;5025474;28;20059;-73
2022/04/14 05:51:21;;;;;;;52.60;33.05;;;8.70;99.90;;;;;;5025549;28;20462;-73
2022/04/14 05:53:51;;;;;;;58.25;35.35;;;8.70;99.90;;;;;;5028145;28;20095;-73
2022/04/14 05:56:17;;;;;;;61.88;35.25;;;8.80;99.90;;;;;;5027595;28;20431;-73
2022/04/14 05:58:43;;;;;;;58.15;32.90;;;8.80;99.90;;;;;;5022648;28;20133;-73
2022/04/14 06:01:09;;;;;;;57.33;34.70;;;8.90;99.90;;;;;;5026390;28;20068;-73
2022/04/14 06:03:35;;;;;;;57.03;34.67;;;8.90;99.90;;;;;;5025756;28;20115;-73
2022/04/14 06:06:01;;;;;;;67.28;35.83;;;9.00;99.90;;;;;;5010143;28;20045;-73
2022/04/14 06:08:27;;;;;;;64.85;36.47;;;9.00;99.90;;;;;;5024140;28;20060;-73
2022/04/14 06:10:53;;;;;;;64.35;36.35;;;9.10;99.90;;;;;;5026472;28;20129;-73
2022/04/14 06:13:19;;;;;;;61.17;35.92;;;9.20;99.90;;;;;;5038443;28;20123;-73
2022/04/14 06:15:44;;;;;;;65.30;38.22;;;9.20;99.90;;;;;;5028560;28;20038;-73
2022/04/14 06:18:10;;;;;;;71.30;38.90;;;9.30;99.90;;;;;;5024579;28;20045;-73
2022/04/14 06:20:36;;;;;;;61.97;37.70;;;9.40;99.90;;;;;;5030636;28;20123;-73
2022/04/14 06:23:02;;;;;;;63.60;38.67;;;9.40;99.90;;;;;;5030946;28;20591;-73
2022/04/14 06:25:28;;;;;;;58.13;35.78;;;9.50;99.90;;;;;;5030963;28;20041;-73
2022/04/14 06:27:57;;;;;;;58.13;34.65;;;9.50;99.90;;;;;;5029242;28;20394;-73
2022/04/14 06:30:23;;;;;;;53.33;33.67;;;9.60;99.90;;;;;;5027033;28;20037;-73
2022/04/14 06:32:59;;;;;;;54.67;33.15;;;9.60;99.90;;;;;;5030937;28;20033;-73
2022/04/14 06:35:25;;;;;;;56.75;34.03;;;9.70;99.90;;;;;;5031343;28;20045;-73
2022/04/14 06:37:51;;;;;;;49.08;33.17;;;9.80;99.90;;;;;;5031039;28;20068;-73
2022/04/14 06:40:17;;;;;;;51.88;33.42;;;9.80;99.90;;;;;;5030930;28;20041;-73
2022/04/14 06:42:43;;;;;;;54.63;33.58;;;9.90;99.90;;;;;;5030605;28;20041;-73
2022/04/14 06:45:08;;;;;;;56.58;35.00;;;10.00;99.90;;;;;;5009861;28;20049;-73
2022/04/14 06:47:34;;;;;;;53.08;34.65;;;10.00;99.90;;;;;;5017278;28;20048;-73
2022/04/14 06:50:00;;;;;;;55.45;33.53;;;10.10;99.90;;;;;;5013274;28;20045;-73
2022/04/14 06:52:26;;;;;;;52.95;35.95;;;10.20;99.90;;;;;;5029958;28;20068;-73
2022/04/14 06:54:51;;;;;;;52.50;33.67;;;10.30;99.90;;;;;;5029838;28;20037;-73
2022/04/14 06:57:18;;;;;;;47.97;30.65;;;10.40;99.90;;;;;;5027876;28;20033;-73
2022/04/14 06:59:44;;;;;;;52.58;29.25;;;10.50;99.90;;;;;;5030519;28;20403;-73
2022/04/14 07:02:10;;;;;;;43.35;28.08;;;10.50;99.90;;;;;;5031032;28;20045;-73
2022/04/14 07:04:36;;;;;;;49.55;30.30;;;10.60;99.90;;;;;;5030173;28;20056;-73
2022/04/14 07:07:02;;;;;;;45.22;28.98;;;10.70;99.90;;;;;;5015062;28;20450;-73
2022/04/14 07:09:34;;;;;;;46.03;28.70;;;10.80;99.90;;;;;;5030914;28;20453;-73
2022/04/14 07:12:01;;;;;;;40.20;27.08;;;10.90;99.90;;;;;;5030548;28;20525;-73
2022/04/14 07:14:28;;;;;;;41.67;27.33;;;11.00;99.90;;;;;;5030563;28;20116;-73
2022/04/14 07:16:55;;;;;;;39.47;27.15;;;11.10;99.90;;;;;;5029822;28;20073;-74
2022/04/14 07:19:21;;;;;;;40.00;26.45;;;11.30;99.90;;;;;;5012855;28;20136;-74
2022/04/14 07:21:47;;;;;;;45.85;27.45;;;11.40;99.90;;;;;;5030182;28;20128;-74
2022/04/14 07:24:13;;;;;;;32.83;24.00;;;11.90;99.90;;;;;;5028703;28;20084;-74
2022/04/14 07:26:38;;;;;;;36.17;23.30;;;12.80;99.90;;;;;;5011925;28;20428;-74
2022/04/14 07:29:04;;;;;;;29.77;22.40;;;13.50;99.90;;;;;;5030433;28;20111;-74
2022/04/14 07:31:31;;;;;;;29.23;21.00;;;14.50;99.90;;;;;;5030000;28;20127;-74
2022/04/14 07:34:00;;;;;;;30.35;20.70;;;15.20;99.90;;;;;;5028416;28;20550;-74
2022/04/14 07:36:26;;;;;;;32.58;20.27;;;15.70;99.90;;;;;;5029996;28;20497;-74
2022/04/14 07:38:52;;;;;;;27.50;19.00;;;16.10;99.90;;;;;;5030253;28;20117;-74
2022/04/14 07:41:18;;;;;;;29.40;19.55;;;16.20;99.90;;;;;;5029878;28;20154;-74
2022/04/14 07:43:43;;;;;;;27.67;18.85;;;16.50;99.90;;;;;;5028173;28;20064;-74
2022/04/14 07:46:09;;;;;;;27.55;17.75;;;16.80;99.90;;;;;;5030009;28;20034;-74
2022/04/14 07:48:35;;;;;;;29.02;17.58;;;17.00;99.90;;;;;;5028426;28;20045;-74
2022/04/14 07:51:01;;;;;;;23.15;16.35;;;17.30;99.90;;;;;;5029496;28;20076;-74
2022/04/14 07:53:30;;;;;;;22.27;16.98;;;17.40;99.90;;;;;;5027927;28;20049;-74
2022/04/14 07:55:56;;;;;;;21.35;15.77;;;17.60;99.90;;;;;;5023773;28;20049;-74
2022/04/14 07:58:22;;;;;;;23.80;16.38;;;18.00;99.90;;;;;;5029188;28;20414;-74
2022/04/14 08:00:50;;;;;;;19.58;14.45;;;18.10;99.90;;;;;;5030336;28;20083;-74
2022/04/14 08:03:16;;;;;;;21.77;14.93;;;18.10;99.90;;;;;;5029270;28;20080;-74
2022/04/14 08:05:44;;;;;;;18.27;12.80;;;18.60;99.90;;;;;;5029461;28;20434;-74
2022/04/14 08:08:15;;;;;;;17.55;12.55;;;18.80;99.90;;;;;;5029409;28;20053;-74
2022/04/14 08:10:44;;;;;;;18.23;13.43;;;18.60;99.90;;;;;;5027214;28;20088;-74
2022/04/14 08:13:11;;;;;;;18.38;12.93;;;18.50;99.90;;;;;;5029386;28;20080;-74
2022/04/14 08:15:38;;;;;;;17.27;14.13;;;18.50;99.90;;;;;;5028885;28;20072;-74
2022/04/14 08:18:08;;;;;;;20.00;13.80;;;18.60;99.90;;;;;;5027731;28;20049;-73
2022/04/14 08:20:35;;;;;;;17.45;12.95;;;18.70;99.90;;;;;;5028779;28;20044;-73
2022/04/14 08:23:02;;;;;;;18.45;13.70;;;19.10;99.90;;;;;;5026858;28;20037;-73
2022/04/14 08:25:30;;;;;;;16.75;13.27;;;19.40;99.90;;;;;;5029655;28;20154;-74
2022/04/14 08:27:58;;;;;;;15.43;12.75;;;19.60;99.90;;;;;;5027240;28;20053;-73
2022/04/14 08:30:25;;;;;;;17.52;13.40;;;19.60;99.90;;;;;;5029792;28;20106;-73
2022/04/14 08:32:52;;;;;;;16.08;12.70;;;19.40;99.90;;;;;;5029468;28;20128;-73
2022/04/14 08:35:19;;;;;;;16.40;13.00;;;19.70;99.70;;;;;;5029735;28;20043;-73
2022/04/14 08:37:46;;;;;;;17.00;13.30;;;19.90;99.30;;;;;;5029877;28;20410;-73
2022/04/14 08:40:16;;;;;;;15.50;13.05;;;19.70;99.30;;;;;;5030793;28;20050;-73
2022/04/14 08:42:56;;;;;;;18.45;13.75;;;19.60;97.40;;;;;;5026069;28;20045;-72
2022/04/14 08:45:23;;;;;;;17.58;14.00;;;18.80;99.20;;;;;;5027191;28;20491;-72
2022/04/14 08:47:53;;;;;;;17.75;14.55;;;19.40;99.40;;;;;;5028496;28;20046;-72
2022/04/14 08:50:19;;;;;;;19.50;13.02;;;19.60;98.30;;;;;;5027008;28;20120;-73
2022/04/14 08:52:45;;;;;;;14.32;11.75;;;19.80;99.00;;;;;;5024357;28;20402;-73
2022/04/14 08:55:14;;;;;;;19.70;13.10;;;20.10;98.30;;;;;;5026699;28;20026;-73
2022/04/14 08:57:43;;;;;;;15.18;11.73;;;20.50;98.10;;;;;;5025776;28;20048;-73
2022/04/14 09:00:11;;;;;;;16.70;12.27;;;20.60;96.90;;;;;;5029139;28;20041;-73
2022/04/14 09:02:38;;;;;;;20.00;13.10;;;20.70;96.80;;;;;;5027393;28;20117;-73
2022/04/14 09:05:05;;;;;;;14.07;12.13;;;20.50;96.60;;;;;;5028762;28;20553;-73
2022/04/14 09:07:31;;;;;;;16.33;11.60;;;20.60;95.70;;;;;;5030096;28;20053;-73
2022/04/14 09:09:57;;;;;;;15.75;11.15;;;20.90;95.80;;;;;;5031159;28;20044;-73
2022/04/14 09:12:23;;;;;;;12.80;11.00;;;21.20;95.20;;;;;;5031630;28;20034;-73
2022/04/14 09:14:49;;;;;;;15.50;11.73;;;21.10;93.80;;;;;;5012894;28;20527;-73
2022/04/14 09:17:15;;;;;;;15.55;11.98;;;20.80;93.20;;;;;;5031761;28;20052;-72
2022/04/14 09:19:44;;;;;;;19.02;11.43;;;20.90;93.70;;;;;;5032703;28;20134;-72
2022/04/14 09:22:14;;;;;;;12.70;11.13;;;21.10;93.30;;;;;;5030523;28;20073;-72
2022/04/14 09:24:42;;;;;;;13.48;11.40;;;21.20;91.80;;;;;;5025327;28;20077;-72
2022/04/14 09:27:09;;;;;;;11.80;10.52;;;21.30;90.80;;;;;;5033187;28;20074;-72
2022/04/14 09:29:45;;;;;;;13.75;11.88;;;20.80;91.80;;;;;;5032360;28;20034;-73
2022/04/14 09:32:11;;;;;;;12.98;11.63;;;20.80;91.70;;;;;;5028315;28;20048;-73
2022/04/14 09:34:54;;;;;;;13.55;11.65;;;20.70;92.20;;;;;;5029307;28;20033;-73
2022/04/14 09:37:23;;;;;;;14.75;11.15;;;20.40;90.60;;;;;;5012151;28;20088;-73
2022/04/14 09:40:00;;;;;;;16.45;11.43;;;19.30;91.60;;;;;;5028472;28;20049;-73
2022/04/14 09:42:29;;;;;;;13.13;11.10;;;18.80;92.60;;;;;;5029642;28;20269;-73
2022/04/14 09:44:55;;;;;;;14.10;11.13;;;18.60;93.40;;;;;;5011891;28;20099;-73
2022/04/14 09:47:25;;;;;;;14.25;10.93;;;18.50;93.50;;;;;;5029528;28;20481;-73
2022/04/14 09:49:51;;;;;;;15.27;11.23;;;18.40;93.10;;;;;;5027142;28;20458;-73
2022/04/14 09:52:16;;;;;;;13.63;10.07;;;18.40;93.50;;;;;;5018822;28;20458;-73
2022/04/14 09:54:44;;;;;;;16.15;10.65;;;19.10;93.60;;;;;;5029645;28;20581;-73
2022/04/14 09:57:12;;;;;;;13.75;11.55;;;19.70;92.90;;;;;;5030111;28;20391;-73
2022/04/14 09:59:37;;;;;;;12.02;9.73;;;20.10;92.70;;;;;;5023376;28;20502;-73
2022/04/14 10:02:16;;;;;;;12.18;10.02;;;20.30;92.10;;;;;;5027976;28;20099;-73
2022/04/14 10:04:47;;;;;;;11.27;9.40;;;20.20;91.10;;;;;;5027691;28;20069;-73
2022/04/14 10:07:18;;;;;;;12.85;9.82;;;19.70;91.00;;;;;;5028505;28;20049;-73
2022/04/14 10:09:46;;;;;;;12.75;10.02;;;19.60;91.60;;;;;;5029618;28;20045;-73
2022/04/14 10:12:17;;;;;;;13.45;10.52;;;19.00;92.10;;;;;;5029131;28;20049;-73
2022/04/14 10:15:02;;;;;;;11.52;9.80;;;18.90;91.90;;;;;;5027475;28;20116;-73
2022/04/14 10:17:38;;;;;;;10.77;8.52;;;18.50;92.40;;;;;;5030203;28;20534;-73
2022/04/14 10:20:14;;;;;;;12.43;8.40;;;18.30;92.70;;;;;;5030650;28;20041;-73
2022/04/14 10:22:40;;;;;;;14.63;9.32;;;18.10;93.00;;;;;;5029238;28;20489;-73
2022/04/14 10:25:07;;;;;;;11.45;9.13;;;17.80;93.10;;;;;;5030618;28;20042;-73
2022/04/14 10:27:36;;;;;;;11.70;9.25;;;17.70;93.60;;;;;;5063248;28;20046;-73
2022/04/14 10:30:03;;;;;;;10.52;7.55;;;17.70;94.00;;;;;;5029220;28;20056;-73
2022/04/14 10:32:30;;;;;;;12.07;8.55;;;17.60;93.40;;;;;;5062696;28;20044;-73
2022/04/14 10:34:57;;;;;;;9.00;7.88;;;17.80;93.70;;;;;;5028993;28;20118;-73
2022/04/14 10:37:36;;;;;;;11.98;9.30;;;18.40;93.10;;;;;;5031387;28;20042;-73
2022/04/14 10:40:02;;;;;;;13.00;8.77;;;19.10;92.50;;;;;;5031541;28;20046;-73
2022/04/14 10:42:29;;;;;;;10.63;8.60;;;19.40;92.00;;;;;;5030414;28;20112;-73
2022/04/14 10:44:56;;;;;;;9.32;8.32;;;19.40;92.00;;;;;;5030895;28;20537;-73
2022/04/14 10:47:43;;;;;;;13.38;7.85;;;19.10;91.30;;;;;;5027093;28;20103;-74
2022/04/14 10:50:41;;;;;;;10.95;7.88;;;19.40;91.30;;;;;;5030027;28;20091;-74
2022/04/14 10:53:21;;;;;;;8.73;6.50;;;19.60;91.20;;;;;;4973041;28;20046;-73
2022/04/14 10:55:48;;;;;;;9.88;7.22;;;19.40;90.70;;;;;;5030644;28;20041;-73
2022/04/14 10:58:52;;;;;;;9.20;6.20;;;18.90;90.50;;;;;;5030540;28;20453;-73
2022/04/14 11:01:47;;;;;;;7.63;6.47;;;18.80;90.20;;;;;;5030686;28;20426;-73
2022/04/14 11:04:29;;;;;;;7.25;6.45;;;18.90;90.40;;;;;;5026686;28;20038;-73
2022/04/14 11:06:59;;;;;;;9.20;7.30;;;19.30;90.20;;;;;;5025688;28;20064;-73
2022/04/14 11:09:42;;;;;;;8.80;7.32;;;19.50;90.20;;;;;;5025610;28;20537;-73
2022/04/14 11:12:19;;;;;;;9.15;7.35;;;19.40;90.20;;;;;;5010625;28;20041;-73
2022/04/14 11:14:47;;;;;;;11.13;8.10;;;19.00;90.60;;;;;;5028166;28;20041;-73
2022/04/14 11:17:34;;;;;;;10.82;7.80;;;18.80;91.40;;;;;;5024788;28;20147;-73
2022/04/14 11:20:45;;;;;;;11.98;7.57;;;18.30;90.80;;;;;;5024668;28;20041;-73
2022/04/14 11:23:15;;;;;;;7.53;6.43;;;18.20;91.20;;;;;;5026853;28;20085;-73
2022/04/14 11:25:47;;;;;;;9.88;6.30;;;18.30;91.50;;;;;;5030086;28;20047;-73
2022/04/14 11:28:30;;;;;;;6.72;5.30;;;18.40;91.60;;;;;;5030605;28;20088;-73
2022/04/14 11:30:58;;;;;;;7.57;4.65;;;18.40;91.60;;;;;;5029964;28;20060;-73
2022/04/14 11:33:33;;;;;;;6.72;4.93;;;18.50;90.60;;;;;;5028135;28;20515;-74
2022/04/14 11:36:11;;;;;;;8.80;5.55;;;18.40;90.60;;;;;;5029255;28;20041;-73
2022/04/14 11:38:56;;;;;;;6.78;4.82;;;18.40;90.70;;;;;;5020522;28;20033;-73
2022/04/14 11:41:40;;;;;;;5.93;4.80;;;18.50;90.50;;;;;;5017103;28;20374;-73
2022/04/14 11:44:16;;;;;;;7.63;4.65;;;18.30;91.30;;;;;;5030152;28;20061;-73
2022/04/14 11:47:02;;;;;;;9.23;6.25;;;18.30;91.10;;;;;;5024354;28;20042;-73
2022/04/14 11:49:34;;;;;;;8.20;5.25;;;18.40;91.20;;;;;;5029799;28;20085;-73
2022/04/14 11:52:04;;;;;;;8.60;6.90;;;18.40;91.70;;;;;;5028706;28;20530;-73
2022/04/14 11:54:30;;;;;;;6.78;5.65;;;18.30;92.40;;;;;;5028446;28;20048;-73
2022/04/14 11:56:58;;;;;;;8.10;4.90;;;18.00;91.70;;;;;;5030175;28;20038;-73
2022/04/14 11:59:35;;;;;;;10.55;4.25;;;17.80;91.00;;;;;;5030563;28;20033;-73
2022/04/14 12:02:15;;;;;;;5.97;3.63;;;17.70;90.90;;;;;;5030402;28;20045;-73
2022/04/14 12:04:45;;;;;;;4.38;2.95;;;17.90;90.60;;;;;;5028367;28;20053;-73
2022/04/14 12:07:11;;;;;;;5.72;3.10;;;18.30;91.00;;;;;;5029677;28;20056;-73
2022/04/14 12:09:37;;;;;;;6.68;3.28;;;18.70;90.70;;;;;;5030024;28;20438;-73
2022/04/14 12:12:13;;;;;;;4.60;3.10;;;19.00;90.20;;;;;;5029813;28;20114;-73
2022/04/14 12:14:51;;;;;;;6.28;3.03;;;19.30;89.90;;;;;;5030137;28;20045;-74
2022/04/14 12:17:22;;;;;;;4.50;2.60;;;19.10;87.60;;;;;;5012254;28;20510;-73
2022/04/14 12:19:52;;;;;;;4.40;2.65;;;19.00;88.80;;;;;;5030224;28;20049;-73
2022/04/14 12:22:19;;;;;;;4.55;2.25;;;19.00;87.80;;;;;;5029992;28;20510;-73
2022/04/14 12:24:55;;;;;;;3.95;2.15;;;19.30;88.20;;;;;;5030251;28;20377;-73
2022/04/14 12:27:28;;;;;;;4.63;2.40;;;19.50;86.80;;;;;;5029508;28;20429;-73
2022/04/14 12:29:55;;;;;;;3.88;2.38;;;19.70;87.30;;;;;;5030091;28;20049;-73
2022/04/14 12:32:27;;;;;;;7.38;3.25;;;19.80;86.60;;;;;;5029570;28;20037;-73
2022/04/14 12:34:53;;;;;;;6.67;3.30;;;19.90;85.60;;;;;;5029917;28;20034;-74
2022/04/14 12:37:19;;;;;;;5.60;3.78;;;19.90;86.20;;;;;;5028539;28;20045;-74